createdAt,value
2023-03-01T00:01:39.666Z,12.88
2023-03-01T00:04:06.808Z,13.13
2023-03-01T00:06:34.084Z,12.88
2023-03-01T00:09:01.372Z,12.60
2023-03-01T00:11:29.723Z,13.10
2023-03-01T00:13:58.117Z,13.25
2023-03-01T00:16:35.917Z,12.70
2023-03-01T00:19:03.672Z,14.13
2023-03-01T00:21:30.916Z,13.52
2023-03-01T00:23:58.703Z,13.52
2023-03-01T00:26:27.449Z,12.75
2023-03-01T00:28:56.375Z,13.15
2023-03-01T00:31:24.697Z,14.48
2023-03-01T00:33:57.987Z,12.95
2023-03-01T00:36:26.551Z,13.75
2023-03-01T00:38:53.751Z,13.60
2023-03-01T00:41:21.515Z,13.57
2023-03-01T00:43:48.659Z,14.95
2023-03-01T00:46:20.033Z,13.57
2023-03-01T00:48:47.227Z,13.38
2023-03-01T00:51:14.349Z,14.25
2023-03-01T00:53:42.000Z,13.27
2023-03-01T00:56:10.327Z,14.75
2023-03-01T00:58:37.582Z,12.30
2023-03-01T01:01:18.003Z,13.55
2023-03-01T01:04:06.140Z,14.13
2023-03-01T01:06:35.442Z,13.00
2023-03-01T01:09:03.430Z,13.10
2023-03-01T01:11:31.117Z,13.10
2023-03-01T01:13:58.633Z,13.50
2023-03-01T01:16:27.127Z,13.65
2023-03-01T01:18:54.840Z,13.50
2023-03-01T01:21:23.724Z,12.85
2023-03-01T01:23:51.333Z,14.18
2023-03-01T01:26:20.553Z,13.85
2023-03-01T01:28:47.934Z,14.00
2023-03-01T01:31:15.178Z,14.05
2023-03-01T01:33:42.701Z,13.13
2023-03-01T01:36:10.360Z,14.18
2023-03-01T01:38:38.315Z,14.38
2023-03-01T01:41:06.887Z,13.70
2023-03-01T01:43:38.843Z,13.93
2023-03-01T01:46:17.306Z,13.65
2023-03-01T01:48:46.412Z,13.23
2023-03-01T01:51:15.633Z,13.55
2023-03-01T01:53:44.591Z,13.70
2023-03-01T01:56:13.404Z,13.95
2023-03-01T01:58:41.259Z,14.10
2023-03-01T02:01:09.201Z,13.23
2023-03-01T02:03:43.089Z,13.85
2023-03-01T02:06:13.507Z,14.18
2023-03-01T02:08:42.599Z,14.00
2023-03-01T02:11:10.623Z,13.98
2023-03-01T02:13:37.873Z,14.10
2023-03-01T02:16:12.477Z,14.32
2023-03-01T02:18:40.704Z,13.88
2023-03-01T02:21:34.173Z,13.32
2023-03-01T02:24:03.059Z,13.32
2023-03-01T02:26:43.986Z,13.75
2023-03-01T02:29:11.241Z,14.95
2023-03-01T02:31:44.751Z,14.25
2023-03-01T02:34:19.426Z,13.32
2023-03-01T02:36:51.290Z,14.95
2023-03-01T02:39:42.949Z,14.10
2023-03-01T02:42:12.833Z,14.30
2023-03-01T02:44:40.282Z,12.40
2023-03-01T02:47:07.800Z,13.25
2023-03-01T02:49:36.557Z,13.23
2023-03-01T02:52:06.587Z,13.02
2023-03-01T02:54:38.274Z,14.15
2023-03-01T02:57:06.628Z,12.30
2023-03-01T02:59:40.177Z,13.38
2023-03-01T03:02:08.435Z,13.63
2023-03-01T03:04:36.200Z,14.73
2023-03-01T03:07:03.383Z,13.40
2023-03-01T03:09:30.618Z,13.32
2023-03-01T03:11:57.819Z,12.77
2023-03-01T03:14:24.943Z,13.23
2023-03-01T03:16:52.195Z,13.27
2023-03-01T03:19:20.089Z,13.43
2023-03-01T03:21:47.706Z,13.00
2023-03-01T03:24:14.875Z,13.73
2023-03-01T03:26:42.002Z,13.00
2023-03-01T03:29:09.142Z,13.70
2023-03-01T03:31:36.360Z,13.27
2023-03-01T03:34:03.591Z,13.93
2023-03-01T03:36:30.934Z,13.95
2023-03-01T03:38:58.222Z,13.27
2023-03-01T03:41:25.392Z,13.57
2023-03-01T03:43:52.575Z,12.48
2023-03-01T03:46:19.763Z,13.30
2023-03-01T03:48:47.411Z,14.07
2023-03-01T03:51:15.512Z,13.18
2023-03-01T03:53:42.855Z,14.85
2023-03-01T03:56:10.034Z,13.77
2023-03-01T03:58:37.237Z,12.88
2023-03-01T04:01:04.502Z,14.13
2023-03-01T04:03:33.065Z,14.27
2023-03-01T04:06:01.620Z,14.60
2023-03-01T04:08:29.129Z,14.52
2023-03-01T04:11:01.532Z,14.25
2023-03-01T04:13:28.750Z,14.75
2023-03-01T04:15:56.415Z,13.80
2023-03-01T04:18:25.578Z,15.10
2023-03-01T04:20:56.402Z,14.23
2023-03-01T04:23:23.753Z,13.93
2023-03-01T04:25:58.196Z,13.40
2023-03-01T04:28:27.388Z,14.68
2023-03-01T04:30:55.261Z,14.55
2023-03-01T04:33:22.738Z,14.68
2023-03-01T04:35:50.416Z,13.80
2023-03-01T04:38:18.629Z,13.32
2023-03-01T04:40:46.250Z,14.43
2023-03-01T04:43:16.829Z,13.98
2023-03-01T04:45:44.142Z,13.40
2023-03-01T04:48:11.501Z,14.52
2023-03-01T04:50:38.677Z,14.13
2023-03-01T04:53:05.804Z,14.27
2023-03-01T04:55:32.970Z,14.40
2023-03-01T04:58:00.275Z,14.98
2023-03-01T05:00:27.641Z,14.25
2023-03-01T05:02:59.004Z,13.90
2023-03-01T05:05:26.733Z,13.75
2023-03-01T05:07:54.921Z,13.85
2023-03-01T05:10:22.277Z,14.07
2023-03-01T05:12:49.514Z,14.05
2023-03-01T05:15:16.671Z,14.10
2023-03-01T05:17:43.810Z,14.18
2023-03-01T05:20:11.617Z,14.05
2023-03-01T05:22:39.574Z,14.30
2023-03-01T05:25:08.186Z,14.40
2023-03-01T05:27:35.790Z,14.38
2023-03-01T05:30:14.245Z,13.85
2023-03-01T05:32:43.987Z,13.13
2023-03-01T05:35:14.172Z,13.88
2023-03-01T05:37:45.054Z,14.75
2023-03-01T05:40:16.744Z,15.10
2023-03-01T05:42:47.944Z,14.30
2023-03-01T05:45:15.466Z,13.75
2023-03-01T05:47:46.117Z,14.52
2023-03-01T05:50:13.489Z,14.45
2023-03-01T05:52:41.570Z,14.18
2023-03-01T05:55:08.932Z,14.85
2023-03-01T05:57:36.216Z,14.32
2023-03-01T06:00:04.071Z,15.02
2023-03-01T06:02:31.213Z,15.27
2023-03-01T06:04:58.530Z,14.52
2023-03-01T06:07:25.735Z,14.43
2023-03-01T06:09:52.911Z,15.13
2023-03-01T06:12:20.105Z,13.85
2023-03-01T06:14:48.864Z,14.27
2023-03-01T06:17:16.021Z,15.05
2023-03-01T06:19:43.154Z,14.38
2023-03-01T06:22:10.368Z,14.77
2023-03-01T06:24:37.738Z,14.05
2023-03-01T06:27:04.913Z,14.27
2023-03-01T06:29:32.471Z,14.43
2023-03-01T06:31:59.593Z,14.38
2023-03-01T06:34:26.789Z,14.50
2023-03-01T06:36:53.971Z,14.07
2023-03-01T06:39:22.271Z,15.23
2023-03-01T06:41:49.481Z,14.93
2023-03-01T06:44:16.672Z,14.18
2023-03-01T06:46:43.811Z,12.95
2023-03-01T06:49:10.994Z,14.73
2023-03-01T06:51:38.456Z,14.35
2023-03-01T06:54:06.583Z,14.45
2023-03-01T06:56:34.289Z,14.63
2023-03-01T06:59:01.663Z,14.80
2023-03-01T07:01:28.843Z,14.07
2023-03-01T07:03:56.102Z,15.57
2023-03-01T07:06:23.775Z,15.13
2023-03-01T07:08:51.282Z,14.93
2023-03-01T07:11:18.518Z,15.55
2023-03-01T07:13:45.706Z,14.50
2023-03-01T07:16:12.987Z,13.75
2023-03-01T07:18:40.190Z,15.57
2023-03-01T07:21:08.420Z,15.70
2023-03-01T07:23:35.971Z,15.50
2023-03-01T07:26:03.246Z,15.07
2023-03-01T07:28:31.340Z,14.75
2023-03-01T07:31:02.631Z,15.45
2023-03-01T07:33:29.802Z,15.05
2023-03-01T07:36:01.221Z,15.20
2023-03-01T07:38:28.706Z,15.38
2023-03-01T07:40:59.897Z,14.45
2023-03-01T07:43:27.082Z,15.98
2023-03-01T07:45:54.345Z,15.35
2023-03-01T07:48:21.480Z,14.38
2023-03-01T07:50:48.672Z,15.95
2023-03-01T07:53:15.858Z,15.48
2023-03-01T07:55:43.057Z,15.48
2023-03-01T07:58:10.236Z,15.13
2023-03-01T08:00:37.423Z,14.57
2023-03-01T08:03:04.565Z,16.10
2023-03-01T08:05:31.797Z,14.98
2023-03-01T08:07:58.955Z,15.00
2023-03-01T08:10:26.209Z,15.00
2023-03-01T08:12:53.991Z,15.73
2023-03-01T08:15:21.301Z,16.40
2023-03-01T08:17:50.952Z,15.88
2023-03-01T08:20:19.886Z,15.13
2023-03-01T08:22:47.314Z,16.23
2023-03-01T08:25:14.434Z,14.48
2023-03-01T08:27:41.600Z,14.77
2023-03-01T08:30:09.087Z,14.82
2023-03-01T08:32:40.439Z,14.93
2023-03-01T08:35:07.835Z,13.68
2023-03-01T08:37:34.943Z,15.27
2023-03-01T08:40:02.318Z,15.10
2023-03-01T08:42:29.451Z,15.70
2023-03-01T08:44:57.741Z,14.57
2023-03-01T08:47:25.005Z,15.60
2023-03-01T08:49:52.408Z,15.20
2023-03-01T08:52:19.573Z,15.30
2023-03-01T08:54:46.753Z,15.32
2023-03-01T08:57:13.974Z,15.73
2023-03-01T08:59:41.629Z,15.80
2023-03-01T09:02:13.675Z,14.23
2023-03-01T09:04:41.264Z,14.98
2023-03-01T09:07:09.057Z,15.23
2023-03-01T09:09:36.863Z,15.50
2023-03-01T09:12:04.323Z,14.45
2023-03-01T09:14:31.577Z,15.43
2023-03-01T09:16:58.803Z,14.85
2023-03-01T09:19:27.403Z,14.85
2023-03-01T09:21:54.785Z,15.55
2023-03-01T09:24:22.930Z,15.23
2023-03-01T09:26:51.660Z,15.57
2023-03-01T09:29:18.937Z,15.85
2023-03-01T09:31:46.207Z,15.90
2023-03-01T09:34:16.316Z,14.90
2023-03-01T09:36:43.588Z,15.45
2023-03-01T09:39:10.714Z,15.63
2023-03-01T09:41:49.118Z,15.23
2023-03-01T09:44:19.155Z,14.68
2023-03-01T09:46:46.936Z,15.68
2023-03-01T09:49:19.244Z,15.50
2023-03-01T09:52:02.794Z,15.40
2023-03-01T09:54:30.044Z,15.93
2023-03-01T09:57:08.537Z,15.10
2023-03-01T09:59:38.828Z,14.73
2023-03-01T10:02:21.804Z,15.02
2023-03-01T10:04:50.982Z,14.38
2023-03-01T10:07:23.935Z,15.50
2023-03-01T10:09:51.115Z,15.20
2023-03-01T10:12:24.391Z,15.02
2023-03-01T10:15:15.757Z,14.07
2023-03-01T10:17:58.285Z,16.45
2023-03-01T10:20:32.443Z,15.10
2023-03-01T10:23:00.022Z,16.23
2023-03-01T10:25:33.397Z,16.25
2023-03-01T10:28:05.786Z,16.38
2023-03-01T10:30:44.927Z,16.77
2023-03-01T10:33:22.283Z,15.80
2023-03-01T10:35:49.605Z,15.90
2023-03-01T10:38:17.508Z,17.45
2023-03-01T10:40:58.772Z,15.32
2023-03-01T10:43:26.812Z,15.90
2023-03-01T10:45:54.291Z,16.40
2023-03-01T10:48:27.163Z,16.60
2023-03-01T10:51:00.539Z,15.18
2023-03-01T10:53:30.530Z,16.30
2023-03-01T10:56:17.958Z,16.33
2023-03-01T10:59:05.086Z,16.13
2023-03-01T11:01:34.358Z,16.13
2023-03-01T11:04:07.881Z,17.45
2023-03-01T11:06:39.032Z,16.40
2023-03-01T11:09:23.465Z,17.10
2023-03-01T11:11:54.375Z,16.93
2023-03-01T11:14:28.844Z,16.45
2023-03-01T11:17:03.743Z,16.63
2023-03-01T11:22:04.105Z,15.88
2023-03-01T11:24:39.556Z,16.38
2023-03-01T11:27:10.632Z,16.65
2023-03-01T11:29:48.729Z,16.75
2023-03-01T11:32:17.094Z,16.77
2023-03-01T11:34:44.369Z,17.30
2023-03-01T11:37:25.928Z,17.33
2023-03-01T11:39:57.724Z,17.02
2023-03-01T11:42:27.961Z,16.50
2023-03-01T11:44:57.074Z,16.38
2023-03-01T11:47:24.333Z,16.15
2023-03-01T11:49:51.599Z,16.30
2023-03-01T11:52:23.141Z,17.60
2023-03-01T11:54:56.420Z,15.95
2023-03-01T11:57:42.468Z,17.00
2023-03-01T12:00:22.572Z,16.80
2023-03-01T12:03:01.701Z,17.40
2023-03-01T12:05:47.846Z,17.23
2023-03-01T12:08:21.847Z,18.77
2023-03-01T12:10:52.178Z,17.50
2023-03-01T12:13:19.348Z,16.77
2023-03-01T12:15:46.456Z,15.70
2023-03-01T12:18:22.816Z,16.52
2023-03-01T12:21:01.984Z,16.67
2023-03-01T12:23:35.357Z,16.13
2023-03-01T12:26:05.278Z,15.38
2023-03-01T12:28:38.661Z,16.85
2023-03-01T12:31:08.601Z,17.40
2023-03-01T12:33:46.929Z,15.90
2023-03-01T12:36:23.248Z,16.05
2023-03-01T12:38:51.353Z,17.05
2023-03-01T12:41:40.146Z,16.20
2023-03-01T12:44:22.246Z,15.77
2023-03-01T12:47:01.359Z,16.92
2023-03-01T12:49:30.560Z,18.58
2023-03-01T12:52:17.985Z,16.10
2023-03-01T12:54:46.853Z,17.20
2023-03-01T12:57:18.469Z,16.20
2023-03-01T13:00:11.507Z,16.80
2023-03-01T13:02:38.727Z,16.40
2023-03-01T13:05:06.617Z,16.60
2023-03-01T13:07:46.548Z,17.23
2023-03-01T13:10:21.736Z,17.10
2023-03-01T13:12:52.712Z,17.08
2023-03-01T13:15:25.734Z,17.98
2023-03-01T13:17:54.344Z,16.95
2023-03-01T13:20:22.993Z,17.48
2023-03-01T13:23:02.112Z,17.85
2023-03-01T13:25:34.626Z,16.20
2023-03-01T13:28:27.277Z,17.98
2023-03-01T13:30:54.469Z,18.65
2023-03-01T13:33:27.523Z,16.95
2023-03-01T13:35:59.690Z,17.45
2023-03-01T13:38:42.113Z,15.65
2023-03-01T13:41:09.950Z,16.42
2023-03-01T13:43:38.392Z,17.08
2023-03-01T13:46:13.169Z,17.98
2023-03-01T13:51:10.590Z,16.45
2023-03-01T13:53:40.869Z,17.20
2023-03-01T13:56:13.715Z,17.10
2023-03-01T13:58:51.600Z,17.23
2023-03-01T14:01:39.578Z,17.08
2023-03-01T14:04:26.673Z,16.48
2023-03-01T14:06:53.877Z,17.25
2023-03-01T14:09:27.231Z,17.85
2023-03-01T14:12:06.232Z,16.92
2023-03-01T14:14:33.378Z,17.75
2023-03-01T14:17:18.748Z,16.85
2023-03-01T14:22:29.426Z,16.70
2023-03-01T14:25:01.225Z,16.05
2023-03-01T14:27:30.620Z,16.98
2023-03-01T14:30:16.075Z,16.67
2023-03-01T14:32:43.222Z,16.27
2023-03-01T14:35:27.794Z,17.20
2023-03-01T14:38:02.848Z,15.70
2023-03-01T14:40:35.589Z,17.20
2023-03-01T14:43:10.196Z,15.55
2023-03-01T14:45:37.377Z,16.08
2023-03-01T14:48:05.987Z,17.40
2023-03-01T14:50:35.231Z,16.60
2023-03-01T14:53:06.430Z,16.50
2023-03-01T14:55:38.884Z,16.27
2023-03-01T14:58:06.833Z,16.27
2023-03-01T15:00:35.438Z,15.10
2023-03-01T15:03:04.947Z,15.70
2023-03-01T15:05:33.824Z,14.98
2023-03-01T15:08:03.148Z,15.40
2023-03-01T15:10:31.753Z,15.23
2023-03-01T15:13:11.654Z,14.98
2023-03-01T15:16:01.598Z,15.43
2023-03-01T15:18:29.849Z,15.98
2023-03-01T15:20:57.582Z,15.30
2023-03-01T15:23:29.094Z,13.85
2023-03-01T15:25:57.602Z,15.60
2023-03-01T15:28:26.922Z,15.27
2023-03-01T15:31:02.052Z,15.23
2023-03-01T15:33:31.008Z,15.07
2023-03-01T15:35:59.750Z,15.50
2023-03-01T15:38:28.005Z,14.88
2023-03-01T15:40:55.650Z,15.45
2023-03-01T15:43:41.532Z,14.93
2023-03-01T15:46:18.280Z,14.85
2023-03-01T15:48:50.451Z,15.20
2023-03-01T15:51:17.931Z,14.95
2023-03-01T15:53:54.606Z,15.18
2023-03-01T15:56:22.229Z,14.60
2023-03-01T15:58:49.496Z,14.20
2023-03-01T16:01:18.436Z,15.40
2023-03-01T16:03:45.946Z,14.52
2023-03-01T16:06:13.349Z,14.95
2023-03-01T16:08:41.418Z,14.68
2023-03-01T16:11:15.303Z,14.82
2023-03-01T16:13:43.550Z,14.25
2023-03-01T16:16:14.565Z,14.40
2023-03-01T16:18:41.805Z,14.63
2023-03-01T16:21:12.394Z,14.75
2023-03-01T16:23:39.527Z,13.82
2023-03-01T16:26:06.633Z,13.55
2023-03-01T16:28:34.427Z,13.45
2023-03-01T16:31:02.387Z,13.05
2023-03-01T16:33:33.917Z,13.80
2023-03-01T16:36:03.165Z,14.02
2023-03-01T16:38:30.787Z,13.27
2023-03-01T16:40:57.941Z,13.63
2023-03-01T16:43:25.322Z,13.40
2023-03-01T16:45:52.548Z,12.98
2023-03-01T16:48:19.893Z,14.75
2023-03-01T16:50:47.058Z,14.93
2023-03-01T16:53:14.385Z,14.10
2023-03-01T16:55:46.362Z,13.85
2023-03-01T16:58:13.828Z,14.73
2023-03-01T17:00:41.160Z,14.23
2023-03-01T17:03:08.321Z,13.93
2023-03-01T17:05:35.470Z,13.90
2023-03-01T17:08:02.690Z,15.23
2023-03-01T17:10:30.054Z,13.85
2023-03-01T17:12:57.216Z,17.10
2023-03-01T17:15:24.880Z,19.02
2023-03-01T17:17:52.297Z,19.42
2023-03-01T17:20:19.691Z,20.65
2023-03-01T17:22:46.833Z,20.67
2023-03-01T17:25:14.059Z,19.17
2023-03-01T17:27:41.843Z,19.83
2023-03-01T17:30:10.001Z,20.42
2023-03-01T17:32:37.307Z,20.00
2023-03-01T17:35:05.000Z,20.90
2023-03-01T17:37:32.192Z,21.27
2023-03-01T17:39:59.343Z,20.75
2023-03-01T17:42:26.466Z,20.92
2023-03-01T17:44:53.614Z,21.58
2023-03-01T17:47:21.208Z,21.20
2023-03-01T17:49:48.370Z,20.70
2023-03-01T17:52:15.511Z,21.70
2023-03-01T17:54:42.674Z,21.33
2023-03-01T17:57:09.783Z,21.40
2023-03-01T17:59:37.682Z,22.10
2023-03-01T18:02:05.014Z,20.83
2023-03-01T18:04:32.573Z,20.92
2023-03-01T18:07:00.076Z,20.70
2023-03-01T18:09:28.298Z,20.92
2023-03-01T18:11:55.432Z,21.38
2023-03-01T18:14:22.633Z,21.70
2023-03-01T18:16:49.900Z,20.70
2023-03-01T18:19:17.158Z,21.00
2023-03-01T18:21:44.597Z,21.42
2023-03-01T18:24:11.815Z,19.50
2023-03-01T18:26:40.213Z,22.10
2023-03-01T18:29:08.278Z,22.13
2023-03-01T18:31:35.637Z,21.58
2023-03-01T18:34:02.895Z,20.33
2023-03-01T18:36:31.209Z,20.13
2023-03-01T18:38:58.766Z,20.50
2023-03-01T18:41:27.060Z,21.67
2023-03-01T18:43:55.918Z,21.20
2023-03-01T18:46:23.775Z,21.23
2023-03-01T18:48:52.380Z,20.52
2023-03-01T18:51:20.823Z,20.67
2023-03-01T18:53:49.057Z,20.30
2023-03-01T18:56:16.304Z,21.52
2023-03-01T18:58:43.588Z,21.70
2023-03-01T19:01:18.120Z,21.00
2023-03-01T19:03:45.650Z,19.45
2023-03-01T19:06:12.866Z,20.95
2023-03-01T19:08:42.061Z,20.80
2023-03-01T19:11:09.653Z,20.85
2023-03-01T19:13:38.349Z,21.67
2023-03-01T19:16:07.627Z,21.90
2023-03-01T19:18:35.206Z,21.58
2023-03-01T19:21:04.220Z,21.95
2023-03-01T19:23:34.814Z,21.50
2023-03-01T19:26:09.388Z,21.08
2023-03-01T19:28:39.238Z,22.85
2023-03-01T19:31:08.104Z,23.02
2023-03-01T19:33:36.155Z,23.58
2023-03-01T19:36:04.632Z,22.65
2023-03-01T19:38:31.834Z,23.70
2023-03-01T19:40:59.137Z,26.00
2023-03-01T19:43:26.300Z,24.13
2023-03-01T19:45:54.188Z,24.15
2023-03-01T19:48:21.991Z,24.40
2023-03-01T19:50:49.598Z,23.65
2023-03-01T19:53:17.088Z,24.35
2023-03-01T19:55:44.282Z,25.58
2023-03-01T19:58:11.938Z,26.20
2023-03-01T20:00:40.038Z,27.80
2023-03-01T20:03:07.542Z,25.83
2023-03-01T20:05:35.623Z,26.58
2023-03-01T20:08:03.263Z,27.05
2023-03-01T20:10:31.367Z,25.45
2023-03-01T20:12:58.618Z,24.83
2023-03-01T20:15:25.873Z,26.38
2023-03-01T20:17:53.014Z,25.33
2023-03-01T20:20:20.332Z,25.88
2023-03-01T20:22:47.562Z,23.90
2023-03-01T20:25:14.704Z,24.55
2023-03-01T20:27:41.931Z,23.67
2023-03-01T20:30:09.596Z,24.00
2023-03-01T20:32:36.836Z,23.58
2023-03-01T20:35:04.094Z,23.83
2023-03-01T20:37:31.310Z,23.40
2023-03-01T20:39:58.430Z,24.90
2023-03-01T20:42:25.654Z,23.10
2023-03-01T20:44:52.820Z,22.30
2023-03-01T20:47:21.041Z,23.92
2023-03-01T20:49:50.832Z,21.88
2023-03-01T20:52:18.422Z,19.48
2023-03-01T20:54:45.593Z,20.63
2023-03-01T20:57:12.837Z,20.05
2023-03-01T20:59:40.174Z,19.73
2023-03-01T21:02:07.335Z,17.40
2023-03-01T21:04:34.463Z,18.48
2023-03-01T21:07:01.633Z,16.33
2023-03-01T21:09:28.756Z,18.52
2023-03-01T21:11:55.900Z,15.63
2023-03-01T21:14:23.702Z,16.23
2023-03-01T21:16:51.266Z,16.23
2023-03-01T21:19:18.444Z,16.25
2023-03-01T21:21:45.625Z,16.23
2023-03-01T21:24:12.832Z,15.77
2023-03-01T21:26:40.037Z,16.48
2023-03-01T21:29:07.228Z,15.43
2023-03-01T21:31:35.611Z,14.98
2023-03-01T21:34:04.398Z,14.68
2023-03-01T21:36:32.406Z,16.08
2023-03-01T21:39:04.247Z,14.73
2023-03-01T21:41:32.745Z,14.50
2023-03-01T21:44:00.983Z,14.73
2023-03-01T21:46:30.730Z,15.00
2023-03-01T21:48:58.723Z,14.02
2023-03-01T21:51:27.361Z,14.90
2023-03-01T21:53:59.491Z,15.40
2023-03-01T21:56:29.416Z,14.80
2023-03-01T21:58:57.807Z,15.35
2023-03-01T22:01:27.158Z,14.48
2023-03-01T22:03:55.163Z,14.85
2023-03-01T22:06:24.515Z,15.57
2023-03-01T22:08:56.747Z,15.13
2023-03-01T22:11:26.044Z,14.77
2023-03-01T22:13:54.561Z,14.10
2023-03-01T22:16:23.705Z,14.35
2023-03-01T22:18:51.194Z,15.20
2023-03-01T22:21:18.893Z,14.55
2023-03-01T22:23:46.603Z,15.35
2023-03-01T22:26:27.241Z,15.10
2023-03-01T22:28:55.556Z,14.95
2023-03-01T22:31:23.235Z,14.15
2023-03-01T22:33:50.752Z,15.82
2023-03-01T22:36:17.884Z,14.25
2023-03-01T22:38:45.206Z,15.80
2023-03-01T22:41:12.394Z,14.95
2023-03-01T22:43:39.521Z,14.57
2023-03-01T22:46:13.916Z,15.27
2023-03-01T22:48:41.403Z,13.15
2023-03-01T22:51:10.105Z,15.90
2023-03-01T22:53:37.696Z,15.88
2023-03-01T22:56:11.912Z,14.48
2023-03-01T22:58:39.080Z,14.35
2023-03-01T23:01:16.771Z,15.60
2023-03-01T23:03:44.164Z,14.55
2023-03-01T23:06:11.773Z,15.75
2023-03-01T23:08:39.061Z,14.65
2023-03-01T23:11:10.128Z,16.10
2023-03-01T23:13:37.345Z,17.33
2023-03-01T23:16:04.661Z,14.40
2023-03-01T23:18:31.796Z,14.93
2023-03-01T23:20:59.098Z,15.60
2023-03-01T23:23:26.231Z,15.40
2023-03-01T23:25:54.671Z,15.20
2023-03-01T23:28:21.948Z,15.25
2023-03-01T23:31:01.565Z,15.70
2023-03-01T23:33:29.116Z,14.82
2023-03-01T23:35:56.342Z,15.07
2023-03-01T23:38:23.551Z,14.98
2023-03-01T23:40:50.733Z,16.35
2023-03-01T23:43:17.870Z,16.05
2023-03-01T23:45:45.249Z,16.80
2023-03-01T23:48:15.608Z,15.68
2023-03-01T23:50:42.974Z,14.77
2023-03-01T23:53:14.289Z,15.77
2023-03-01T23:55:45.330Z,16.60
2023-03-01T23:58:12.650Z,15.02
